createdAt,value
2019-04-01T00:00:30.631Z,1019.7
2019-04-01T00:01:32.115Z,1019.7
2019-04-01T00:02:33.640Z,1019.7
2019-04-01T00:03:35.170Z,1019.7
2019-04-01T00:04:36.717Z,1019.7
2019-04-01T00:05:38.287Z,1019.7
2019-04-01T00:06:40.111Z,1019.6
2019-04-01T00:07:41.777Z,1019.7
2019-04-01T00:08:43.389Z,1019.7
2019-04-01T00:09:45.069Z,1019.7
2019-04-01T00:10:46.587Z,1019.6
2019-04-01T00:11:48.327Z,1019.6
2019-04-01T00:12:49.954Z,1019.6
2019-04-01T00:13:51.495Z,1019.6
2019-04-01T00:14:53.026Z,1019.7
2019-04-01T00:15:54.678Z,1019.6
2019-04-01T00:16:56.280Z,1019.6
2019-04-01T00:17:58.008Z,1019.6
2019-04-01T00:19:03.190Z,1019.6
2019-04-01T00:20:01.316Z,1019.7
2019-04-01T00:21:02.938Z,1019.6
2019-04-01T00:22:04.607Z,1019.6
2019-04-01T00:23:06.389Z,1019.6
2019-04-01T00:24:07.806Z,1019.5
2019-04-01T00:25:09.394Z,1019.5
2019-04-01T00:26:11.210Z,1019.6
2019-04-01T00:27:12.879Z,1019.5
2019-04-01T00:28:14.509Z,1019.5
2019-04-01T00:29:16.321Z,1019.6
2019-04-01T00:30:17.954Z,1019.5
2019-04-01T00:31:19.555Z,1019.5
2019-04-01T00:32:21.207Z,1019.6
2019-04-01T00:33:22.792Z,1019.5
2019-04-01T00:34:24.375Z,1019.6
2019-04-01T00:35:26.449Z,1019.6
2019-04-01T00:36:28.084Z,1019.6
2019-04-01T00:37:29.737Z,1019.6
2019-04-01T00:38:31.588Z,1019.6
2019-04-01T00:39:33.114Z,1019.5
2019-04-01T00:40:35.166Z,1019.6
2019-04-01T00:41:36.779Z,1019.6
2019-04-01T00:42:38.506Z,1019.5
2019-04-01T00:43:40.099Z,1019.6
2019-04-01T00:44:41.794Z,1019.5
2019-04-01T00:45:43.388Z,1019.6
2019-04-01T00:46:45.247Z,1019.5
2019-04-01T00:47:46.829Z,1019.5
2019-04-01T00:48:48.645Z,1019.4
2019-04-01T00:49:50.269Z,1019.5
2019-04-01T00:50:52.096Z,1019.4
2019-04-01T00:51:53.721Z,1019.5
2019-04-01T00:52:55.419Z,1019.5
2019-04-01T00:53:57.032Z,1019.5
2019-04-01T00:54:58.759Z,1019.5
2019-04-01T00:56:00.532Z,1019.5
2019-04-01T00:57:02.126Z,1019.5
2019-04-01T00:58:03.712Z,1019.5
2019-04-01T00:59:05.530Z,1019.4
2019-04-01T01:00:07.170Z,1019.3
2019-04-01T01:01:08.751Z,1019.4
2019-04-01T01:02:10.651Z,1019.4
2019-04-01T01:03:12.195Z,1019.4
2019-04-01T01:04:13.857Z,1019.4
2019-04-01T01:05:15.508Z,1019.4
2019-04-01T01:06:17.206Z,1019.4
2019-04-01T01:07:19.006Z,1019.4
2019-04-01T01:08:20.620Z,1019.4
2019-04-01T01:09:22.297Z,1019.4
2019-04-01T01:10:23.932Z,1019.3
2019-04-01T01:11:25.585Z,1019.3
2019-04-01T01:12:27.142Z,1019.3
2019-04-01T01:13:28.917Z,1019.4
2019-04-01T01:14:30.556Z,1019.3
2019-04-01T01:15:32.115Z,1019.3
2019-04-01T01:16:33.806Z,1019.3
2019-04-01T01:17:35.311Z,1019.3
2019-04-01T01:18:36.933Z,1019.3
2019-04-01T01:19:38.504Z,1019.3
2019-04-01T01:20:40.087Z,1019.3
2019-04-01T01:21:41.861Z,1019.3
2019-04-01T01:22:43.493Z,1019.3
2019-04-01T01:23:45.117Z,1019.3
2019-04-01T01:24:46.708Z,1019.2
2019-04-01T01:25:48.421Z,1019.2
2019-04-01T01:26:50.015Z,1019.3
2019-04-01T01:27:51.738Z,1019.3
2019-04-01T01:28:53.340Z,1019.2
2019-04-01T01:29:55.058Z,1019.2
2019-04-01T01:30:56.896Z,1019.2
2019-04-01T01:31:58.528Z,1019.2
2019-04-01T01:33:00.127Z,1019.2
2019-04-01T01:34:01.831Z,1019.2
2019-04-01T01:35:03.415Z,1019.2
2019-04-01T01:36:05.001Z,1019.2
2019-04-01T01:37:06.749Z,1019.2
2019-04-01T01:38:08.330Z,1019.2
2019-04-01T01:39:09.947Z,1019.2
2019-04-01T01:40:11.714Z,1019.2
2019-04-01T01:41:13.292Z,1019.2
2019-04-01T01:42:14.941Z,1019.1
2019-04-01T01:43:16.558Z,1019.1
2019-04-01T01:44:18.338Z,1019.1
2019-04-01T01:45:19.945Z,1019.1
2019-04-01T01:46:21.852Z,1019.1
2019-04-01T01:47:23.312Z,1019.1
2019-04-01T01:48:25.036Z,1019.1
2019-04-01T01:49:26.600Z,1019.1
2019-04-01T01:50:28.302Z,1019.1
2019-04-01T01:51:29.852Z,1019.0
2019-04-01T01:52:31.605Z,1019.1
2019-04-01T01:53:33.423Z,1019.1
2019-04-01T01:54:35.197Z,1019.0
2019-04-01T01:55:36.766Z,1019.0
2019-04-01T01:56:38.398Z,1018.9
2019-04-01T01:57:40.008Z,1019.0
2019-04-01T01:58:41.688Z,1019.0
2019-04-01T01:59:43.322Z,1018.9
2019-04-01T02:00:45.045Z,1019.0
2019-04-01T02:01:46.713Z,1019.0
2019-04-01T02:02:48.503Z,1018.9
2019-04-01T02:03:50.231Z,1019.0
2019-04-01T02:04:51.798Z,1018.9
2019-04-01T02:05:53.636Z,1018.9
2019-04-01T02:06:55.224Z,1018.9
2019-04-01T02:07:56.833Z,1019.0
2019-04-01T02:08:58.607Z,1018.9
2019-04-01T02:10:00.341Z,1018.9
2019-04-01T02:11:01.871Z,1018.8
2019-04-01T02:12:03.361Z,1018.9
2019-04-01T02:13:05.056Z,1018.9
2019-04-01T02:14:06.608Z,1018.9
2019-04-01T02:15:08.253Z,1019.0
2019-04-01T02:16:10.084Z,1018.9
2019-04-01T02:17:11.655Z,1018.9
2019-04-01T02:18:13.640Z,1018.9
2019-04-01T02:19:15.421Z,1018.9
2019-04-01T02:20:17.090Z,1018.9
2019-04-01T02:21:18.726Z,1018.9
2019-04-01T02:22:20.347Z,1018.9
2019-04-01T02:23:21.919Z,1018.9
2019-04-01T02:24:23.464Z,1018.9
2019-04-01T02:25:25.273Z,1018.9
2019-04-01T02:26:26.884Z,1018.9
2019-04-01T02:27:28.580Z,1018.8
2019-04-01T02:28:30.199Z,1018.8
2019-04-01T02:29:31.904Z,1018.9
2019-04-01T02:30:33.459Z,1018.8
2019-04-01T02:31:35.177Z,1018.8
2019-04-01T02:32:36.822Z,1018.8
2019-04-01T02:33:38.379Z,1018.8
2019-04-01T02:34:39.901Z,1018.8
2019-04-01T02:35:41.530Z,1018.8
2019-04-01T02:36:43.093Z,1018.8
2019-04-01T02:37:44.481Z,1018.8
2019-04-01T02:38:45.983Z,1018.8
2019-04-01T02:39:47.508Z,1018.8
2019-04-01T02:40:48.999Z,1018.8
2019-04-01T02:41:50.874Z,1018.8
2019-04-01T02:42:52.465Z,1018.8
2019-04-01T02:43:54.224Z,1018.9
2019-04-01T02:44:55.769Z,1018.8
2019-04-01T02:45:57.375Z,1018.8
2019-04-01T02:46:59.020Z,1018.8
2019-04-01T02:48:00.607Z,1018.8
2019-04-01T02:49:02.256Z,1018.9
2019-04-01T02:50:03.886Z,1018.8
2019-04-01T02:51:05.542Z,1018.8
2019-04-01T02:52:07.143Z,1018.9
2019-04-01T02:53:08.865Z,1018.8
2019-04-01T02:54:10.421Z,1018.9
2019-04-01T02:55:12.093Z,1018.8
2019-04-01T02:56:13.854Z,1018.8
2019-04-01T02:57:15.414Z,1018.8
2019-04-01T02:58:16.985Z,1018.8
2019-04-01T02:59:18.775Z,1018.7
2019-04-01T03:00:20.320Z,1018.7
2019-04-01T03:01:22.083Z,1018.8
2019-04-01T03:02:23.697Z,1018.7
2019-04-01T03:03:25.371Z,1018.7
2019-04-01T03:04:26.970Z,1018.7
2019-04-01T03:05:28.567Z,1018.7
2019-04-01T03:06:30.198Z,1018.7
2019-04-01T03:07:31.908Z,1018.7
2019-04-01T03:08:33.553Z,1018.7
2019-04-01T03:09:35.244Z,1018.7
2019-04-01T03:10:36.842Z,1018.6
2019-04-01T03:11:38.446Z,1018.6
2019-04-01T03:12:40.165Z,1018.6
2019-04-01T03:13:41.771Z,1018.7
2019-04-01T03:14:43.452Z,1018.6
2019-04-01T03:15:45.147Z,1018.7
2019-04-01T03:16:46.624Z,1018.6
2019-04-01T03:17:48.276Z,1018.6
2019-04-01T03:18:49.961Z,1018.6
2019-04-01T03:19:51.781Z,1018.6
2019-04-01T03:20:53.396Z,1018.6
2019-04-01T03:21:55.153Z,1018.6
2019-04-01T03:22:56.800Z,1018.6
2019-04-01T03:23:58.511Z,1018.6
2019-04-01T03:25:00.129Z,1018.6
2019-04-01T03:26:01.783Z,1018.7
2019-04-01T03:27:03.541Z,1018.6
2019-04-01T03:28:05.141Z,1018.5
2019-04-01T03:29:06.770Z,1018.6
2019-04-01T03:30:08.606Z,1018.5
2019-04-01T03:31:10.247Z,1018.6
2019-04-01T03:32:12.072Z,1018.6
2019-04-01T03:33:13.659Z,1018.6
2019-04-01T03:34:15.375Z,1018.5
2019-04-01T03:35:16.992Z,1018.5
2019-04-01T03:36:18.641Z,1018.5
2019-04-01T03:37:20.489Z,1018.5
2019-04-01T03:38:22.048Z,1018.6
2019-04-01T03:39:23.680Z,1018.6
2019-04-01T03:40:25.484Z,1018.6
2019-04-01T03:41:27.090Z,1018.6
2019-04-01T03:42:28.668Z,1018.5
2019-04-01T03:43:30.411Z,1018.5
2019-04-01T03:44:31.978Z,1018.6
2019-04-01T03:45:33.647Z,1018.6
2019-04-01T03:46:35.454Z,1018.5
2019-04-01T03:47:37.067Z,1018.6
2019-04-01T03:48:38.690Z,1018.5
2019-04-01T03:49:40.754Z,1018.5
2019-04-01T03:50:42.387Z,1018.5
2019-04-01T03:51:44.036Z,1018.5
2019-04-01T03:52:45.738Z,1018.5
2019-04-01T03:53:47.369Z,1018.5
2019-04-01T03:54:49.080Z,1018.5
2019-04-01T03:55:50.661Z,1018.6
2019-04-01T03:56:52.336Z,1018.5
2019-04-01T03:57:53.924Z,1018.6
2019-04-01T03:58:55.648Z,1018.6
2019-04-01T03:59:57.200Z,1018.6
2019-04-01T04:00:58.975Z,1018.6
2019-04-01T04:02:00.458Z,1018.5
2019-04-01T04:03:02.626Z,1018.5
2019-04-01T04:04:04.334Z,1018.6
2019-04-01T04:05:06.210Z,1018.5
2019-04-01T04:06:07.814Z,1018.5
2019-04-01T04:07:09.866Z,1018.5
2019-04-01T04:08:11.556Z,1018.5
2019-04-01T04:09:13.335Z,1018.4
2019-04-01T04:10:15.006Z,1018.5
2019-04-01T04:11:16.656Z,1018.5
2019-04-01T04:12:18.556Z,1018.6
2019-04-01T04:13:20.179Z,1018.5
2019-04-01T04:14:21.604Z,1018.6
2019-04-01T04:15:23.377Z,1018.6
2019-04-01T04:16:24.967Z,1018.5
2019-04-01T04:17:26.434Z,1018.6
2019-04-01T04:18:28.179Z,1018.5
2019-04-01T04:19:29.821Z,1018.5
2019-04-01T04:20:31.371Z,1018.6
2019-04-01T04:21:33.775Z,1018.5
2019-04-01T04:22:35.357Z,1018.6
2019-04-01T04:23:36.793Z,1018.5
2019-04-01T04:24:38.867Z,1018.6
2019-04-01T04:25:40.728Z,1018.5
2019-04-01T04:26:42.186Z,1018.6
2019-04-01T04:27:43.785Z,1018.5
2019-04-01T04:28:45.206Z,1018.5
2019-04-01T04:29:46.681Z,1018.5
2019-04-01T04:30:48.305Z,1018.5
2019-04-01T04:31:49.745Z,1018.5
2019-04-01T04:32:51.178Z,1018.5
2019-04-01T04:33:52.895Z,1018.5
2019-04-01T04:34:57.173Z,1018.5
2019-04-01T04:35:55.793Z,1018.5
2019-04-01T04:36:57.387Z,1018.5
2019-04-01T04:37:59.059Z,1018.4
2019-04-01T04:39:00.489Z,1018.5
2019-04-01T04:40:02.097Z,1018.5
2019-04-01T04:41:03.495Z,1018.5
2019-04-01T04:42:04.924Z,1018.4
2019-04-01T04:43:06.422Z,1018.4
2019-04-01T04:44:07.866Z,1018.4
2019-04-01T04:45:09.687Z,1018.4
2019-04-01T04:46:11.175Z,1018.4
2019-04-01T04:47:12.963Z,1018.4
2019-04-01T04:48:14.740Z,1018.4
2019-04-01T04:49:16.345Z,1018.4
2019-04-01T04:50:17.774Z,1018.4
2019-04-01T04:51:19.336Z,1018.4
2019-04-01T04:52:20.770Z,1018.4
2019-04-01T04:53:22.465Z,1018.4
2019-04-01T04:54:23.895Z,1018.4
2019-04-01T04:55:25.928Z,1018.4
2019-04-01T04:56:27.540Z,1018.4
2019-04-01T04:57:29.293Z,1018.4
2019-04-01T04:58:30.711Z,1018.4
2019-04-01T04:59:32.608Z,1018.4
2019-04-01T05:00:34.034Z,1018.4
2019-04-01T05:01:35.462Z,1018.3
2019-04-01T05:02:37.063Z,1018.4
2019-04-01T05:03:38.544Z,1018.4
2019-04-01T05:04:40.023Z,1018.4
2019-04-01T05:05:41.609Z,1018.4
2019-04-01T05:06:43.055Z,1018.4
2019-04-01T05:07:44.521Z,1018.4
2019-04-01T05:08:46.135Z,1018.4
2019-04-01T05:09:47.613Z,1018.4
2019-04-01T05:10:49.390Z,1018.4
2019-04-01T05:11:51.077Z,1018.4
2019-04-01T05:12:52.678Z,1018.4
2019-04-01T05:13:54.103Z,1018.4
2019-04-01T05:14:55.962Z,1018.4
2019-04-01T05:15:57.428Z,1018.4
2019-04-01T05:16:59.314Z,1018.4
2019-04-01T05:18:00.906Z,1018.4
2019-04-01T05:19:02.367Z,1018.4
2019-04-01T05:20:03.791Z,1018.4
2019-04-01T05:21:05.635Z,1018.4
2019-04-01T05:22:07.082Z,1018.4
2019-04-01T05:23:08.540Z,1018.4
2019-04-01T05:24:10.177Z,1018.4
2019-04-01T05:25:11.849Z,1018.4
2019-04-01T05:26:13.716Z,1018.5
2019-04-01T05:27:15.241Z,1018.5
2019-04-01T05:28:16.718Z,1018.5
2019-04-01T05:29:18.384Z,1018.5
2019-04-01T05:30:19.982Z,1018.4
2019-04-01T05:31:21.390Z,1018.5
2019-04-01T05:32:23.090Z,1018.5
2019-04-01T05:33:24.520Z,1018.5
2019-04-01T05:34:25.960Z,1018.5
2019-04-01T05:35:27.466Z,1018.5
2019-04-01T05:36:28.892Z,1018.5
2019-04-01T05:37:30.323Z,1018.5
2019-04-01T05:38:31.984Z,1018.5
2019-04-01T05:39:33.436Z,1018.5
2019-04-01T05:40:35.062Z,1018.5
2019-04-01T05:41:36.537Z,1018.6
2019-04-01T05:42:38.293Z,1018.6
2019-04-01T05:43:39.757Z,1018.6
2019-04-01T05:44:41.450Z,1018.6
2019-04-01T05:45:42.944Z,1018.5
2019-04-01T05:46:44.515Z,1018.6
2019-04-01T05:47:46.068Z,1018.6
2019-04-01T05:48:47.506Z,1018.6
2019-04-01T05:49:49.207Z,1018.6
2019-04-01T05:50:50.616Z,1018.6
2019-04-01T05:51:52.151Z,1018.6
2019-04-01T05:52:53.582Z,1018.6
2019-04-01T05:53:55.022Z,1018.6
2019-04-01T05:54:56.655Z,1018.6
2019-04-01T05:55:58.090Z,1018.6
2019-04-01T05:56:59.521Z,1018.6
2019-04-01T05:58:01.164Z,1018.6
2019-04-01T05:59:02.609Z,1018.7
2019-04-01T06:00:04.266Z,1018.5
2019-04-01T06:01:05.881Z,1018.6
2019-04-01T06:02:07.481Z,1018.6
2019-04-01T06:03:09.164Z,1018.6
2019-04-01T06:04:10.583Z,1018.5
2019-04-01T06:05:12.000Z,1018.5
2019-04-01T06:06:13.650Z,1018.5
2019-04-01T06:07:15.097Z,1018.5
2019-04-01T06:08:16.522Z,1018.5
2019-04-01T06:09:18.248Z,1018.5
2019-04-01T06:10:19.868Z,1018.5
2019-04-01T06:11:21.234Z,1018.6
2019-04-01T06:12:24.120Z,1018.5
2019-04-01T06:13:24.611Z,1018.5
2019-04-01T06:14:26.013Z,1018.5
2019-04-01T06:15:27.515Z,1018.5
2019-04-01T06:16:29.115Z,1018.5
2019-04-01T06:17:30.543Z,1018.5
2019-04-01T06:18:32.024Z,1018.5
2019-04-01T06:19:33.680Z,1018.5
2019-04-01T06:20:35.130Z,1018.6
2019-04-01T06:21:36.792Z,1018.6
2019-04-01T06:22:38.711Z,1018.6
2019-04-01T06:23:40.118Z,1018.6
2019-04-01T06:24:41.724Z,1018.6
2019-04-01T06:25:43.430Z,1018.5
2019-04-01T06:26:44.990Z,1018.6
2019-04-01T06:27:46.647Z,1018.6
2019-04-01T06:28:48.111Z,1018.6
2019-04-01T06:29:50.006Z,1018.7
2019-04-01T06:30:51.433Z,1018.7
2019-04-01T06:31:52.875Z,1018.7
2019-04-01T06:32:54.746Z,1018.7
2019-04-01T06:33:56.263Z,1018.7
2019-04-01T06:34:57.793Z,1018.7
2019-04-01T06:35:59.521Z,1018.8
2019-04-01T06:37:01.299Z,1018.9
2019-04-01T06:38:02.892Z,1018.8
2019-04-01T06:39:04.475Z,1018.9
2019-04-01T06:40:06.550Z,1018.9
2019-04-01T06:41:08.220Z,1019.0
2019-04-01T06:42:09.921Z,1019.0
2019-04-01T06:43:11.632Z,1019.1
2019-04-01T06:44:13.281Z,1019.1
2019-04-01T06:45:15.002Z,1019.1
2019-04-01T06:46:16.589Z,1019.2
2019-04-01T06:47:18.319Z,1019.1
2019-04-01T06:48:20.034Z,1019.2
2019-04-01T06:49:21.934Z,1019.2
2019-04-01T06:50:23.677Z,1019.3
2019-04-01T06:51:25.533Z,1019.3
2019-04-01T06:52:27.195Z,1019.3
2019-04-01T06:53:28.871Z,1019.2
2019-04-01T06:54:31.245Z,1019.3
2019-04-01T06:55:33.741Z,1019.3
2019-04-01T06:56:35.102Z,1019.3
2019-04-01T06:57:36.804Z,1019.3
2019-04-01T06:58:38.527Z,1019.4
2019-04-01T06:59:39.999Z,1019.4
2019-04-01T07:00:41.618Z,1019.4
2019-04-01T07:01:43.399Z,1019.5
2019-04-01T07:02:44.869Z,1019.6
2019-04-01T07:03:46.334Z,1019.8
2019-04-01T07:04:47.923Z,1020.2
2019-04-01T07:05:49.427Z,1021.1
2019-04-01T07:06:50.869Z,1022.2
2019-04-01T07:07:52.447Z,1022.3
2019-04-01T07:08:53.876Z,1021.5
2019-04-01T07:09:55.597Z,1021.1
2019-04-01T07:10:57.061Z,1021.0
2019-04-01T07:11:58.627Z,1020.8
2019-04-01T07:13:00.086Z,1020.8
2019-04-01T07:14:01.737Z,1020.9
2019-04-01T07:15:03.201Z,1020.9
2019-04-01T07:16:15.254Z,1020.9
2019-04-01T07:17:06.229Z,1020.9
2019-04-01T07:18:07.919Z,1020.8
2019-04-01T07:19:09.378Z,1020.8
2019-04-01T07:20:10.817Z,1020.8
2019-04-01T07:21:12.422Z,1020.9
2019-04-01T07:22:14.261Z,1021.0
2019-04-01T07:23:15.740Z,1021.0
2019-04-01T07:24:17.381Z,1021.0
2019-04-01T07:25:18.847Z,1021.1
2019-04-01T07:26:20.428Z,1021.1
2019-04-01T07:27:21.898Z,1021.0
2019-04-01T07:28:23.737Z,1021.0
2019-04-01T07:29:25.187Z,1020.8
2019-04-01T07:30:26.672Z,1020.7
2019-04-01T07:31:28.239Z,1020.3
2019-04-01T07:32:29.689Z,1020.1
2019-04-01T07:33:31.154Z,1019.8
2019-04-01T07:34:32.820Z,1019.7
2019-04-01T07:35:34.276Z,1019.5
2019-04-01T07:36:35.740Z,1019.5
2019-04-01T07:37:37.310Z,1019.5
2019-04-01T07:38:38.796Z,1019.4
2019-04-01T07:39:40.255Z,1019.4
2019-04-01T07:40:41.838Z,1019.2
2019-04-01T07:41:43.280Z,1019.2
2019-04-01T07:42:44.719Z,1019.1
2019-04-01T07:43:46.751Z,1019.1
2019-04-01T07:44:48.185Z,1019.1
2019-04-01T07:45:49.876Z,1019.3
2019-04-01T07:46:51.326Z,1019.4
2019-04-01T07:47:52.915Z,1019.3
2019-04-01T07:48:54.354Z,1019.5
2019-04-01T07:49:56.018Z,1019.6
2019-04-01T07:50:57.514Z,1019.6
2019-04-01T07:51:59.120Z,1019.5
2019-04-01T07:53:00.566Z,1019.5
2019-04-01T07:54:02.172Z,1019.8
2019-04-01T07:55:04.070Z,1020.0
2019-04-01T07:56:05.652Z,1020.1
2019-04-01T07:57:07.127Z,1019.9
2019-04-01T07:58:08.750Z,1019.7
2019-04-01T07:59:10.219Z,1020.1
2019-04-01T08:00:11.673Z,1020.0
2019-04-01T08:01:13.245Z,1019.7
2019-04-01T08:02:14.659Z,1019.8
2019-04-01T08:03:16.062Z,1019.5
2019-04-01T08:04:17.562Z,1019.6
2019-04-01T08:05:18.981Z,1019.4
2019-04-01T08:06:20.475Z,1019.8
2019-04-01T08:07:21.909Z,1020.4
2019-04-01T08:08:23.332Z,1019.9
2019-04-01T08:09:24.828Z,1020.3
2019-04-01T08:10:26.269Z,1020.1
2019-04-01T08:11:27.899Z,1021.1
2019-04-01T08:12:29.377Z,1021.0
2019-04-01T08:13:30.742Z,1020.9
2019-04-01T08:14:32.469Z,1020.7
2019-04-01T08:15:33.919Z,1020.1
2019-04-01T08:16:35.540Z,1020.2
2019-04-01T08:17:37.009Z,1020.1
2019-04-01T08:18:38.697Z,1019.9
2019-04-01T08:19:40.122Z,1019.7
2019-04-01T08:20:41.725Z,1019.5
2019-04-01T08:21:43.163Z,1019.7
2019-04-01T08:22:44.769Z,1019.8
2019-04-01T08:23:46.339Z,1019.3
2019-04-01T08:24:47.814Z,1019.4
2019-04-01T08:25:49.269Z,1019.5
2019-04-01T08:26:50.936Z,1019.3
2019-04-01T08:27:52.367Z,1019.5
2019-04-01T08:28:54.203Z,1019.1
2019-04-01T08:29:55.625Z,1019.2
2019-04-01T08:30:57.075Z,1020.2
2019-04-01T08:31:58.560Z,1019.4
2019-04-01T08:33:00.031Z,1019.0
2019-04-01T08:34:01.486Z,1019.4
2019-04-01T08:35:03.073Z,1019.6
2019-04-01T08:36:04.533Z,1019.7
2019-04-01T08:37:06.077Z,1019.3
2019-04-01T08:38:07.621Z,1019.3
2019-04-01T08:39:09.208Z,1019.6
2019-04-01T08:40:10.687Z,1019.7
2019-04-01T08:41:12.132Z,1019.7
2019-04-01T08:42:13.564Z,1020.3
2019-04-01T08:43:15.211Z,1020.1
2019-04-01T08:44:16.629Z,1020.4
2019-04-01T08:45:18.106Z,1020.9
2019-04-01T08:46:19.729Z,1021.1
2019-04-01T08:47:21.190Z,1021.3
2019-04-01T08:48:22.649Z,1020.8
2019-04-01T08:49:24.245Z,1020.8
2019-04-01T08:50:26.100Z,1021.4
2019-04-01T08:51:27.557Z,1021.5
2019-04-01T08:52:29.470Z,1021.5
2019-04-01T08:53:30.809Z,1021.4
2019-04-01T08:54:32.258Z,1021.4
2019-04-01T08:55:33.721Z,1021.4
2019-04-01T08:56:38.156Z,1021.6
2019-04-01T08:57:36.809Z,1021.7
2019-04-01T08:58:38.317Z,1021.5
2019-04-01T08:59:40.017Z,1021.4
2019-04-01T09:00:41.450Z,1021.3
2019-04-01T09:01:43.083Z,1021.4
2019-04-01T09:02:44.519Z,1021.4
2019-04-01T09:03:46.196Z,1021.3
2019-04-01T09:04:47.671Z,1021.2
2019-04-01T09:05:49.315Z,1021.2
2019-04-01T09:06:50.913Z,1021.1
2019-04-01T09:07:52.425Z,1021.2
2019-04-01T09:08:53.859Z,1021.0
2019-04-01T09:09:55.846Z,1020.8
2019-04-01T09:10:57.251Z,1020.6
2019-04-01T09:11:58.715Z,1020.6
2019-04-01T09:13:00.363Z,1020.5
2019-04-01T09:14:01.861Z,1020.5
2019-04-01T09:15:03.310Z,1020.4
2019-04-01T09:16:04.904Z,1020.2
2019-04-01T09:17:06.353Z,1020.0
2019-04-01T09:18:07.775Z,1019.9
2019-04-01T09:19:09.372Z,1019.8
2019-04-01T09:20:10.808Z,1019.9
2019-04-01T09:21:12.221Z,1019.9
2019-04-01T09:22:13.701Z,1019.9
2019-04-01T09:23:15.203Z,1019.9
2019-04-01T09:24:16.841Z,1020.0
2019-04-01T09:25:18.316Z,1020.0
2019-04-01T09:26:19.934Z,1019.8
2019-04-01T09:27:21.417Z,1019.2
2019-04-01T09:28:23.026Z,1019.0
2019-04-01T09:29:24.470Z,1019.1
2019-04-01T09:30:25.892Z,1019.9
2019-04-01T09:31:27.495Z,1020.4
2019-04-01T09:32:29.066Z,1020.6
2019-04-01T09:33:30.499Z,1020.6
2019-04-01T09:34:32.223Z,1020.7
2019-04-01T09:35:33.649Z,1020.7
2019-04-01T09:36:35.067Z,1020.2
2019-04-01T09:37:36.790Z,1019.5
2019-04-01T09:38:38.187Z,1020.7
2019-04-01T09:39:39.777Z,1022.0
2019-04-01T09:40:41.525Z,1022.1
2019-04-01T09:41:42.984Z,1022.4
2019-04-01T09:42:44.438Z,1022.3
2019-04-01T09:43:46.056Z,1022.1
2019-04-01T09:44:47.491Z,1021.9
2019-04-01T09:45:48.938Z,1022.2
2019-04-01T09:46:50.590Z,1022.3
2019-04-01T09:47:52.022Z,1022.3
2019-04-01T09:48:53.664Z,1022.9
2019-04-01T09:49:55.150Z,1023.2
2019-04-01T09:50:56.767Z,1022.7
2019-04-01T09:51:58.234Z,1019.6
2019-04-01T09:52:59.846Z,1020.4
2019-04-01T09:54:01.294Z,1021.4
2019-04-01T09:55:05.882Z,1025.0
2019-04-01T09:56:04.248Z,1024.7
2019-04-01T09:57:16.716Z,1022.7
2019-04-01T09:58:07.422Z,1023.2
2019-04-01T09:59:09.057Z,1026.1
2019-04-01T10:00:10.483Z,1026.1
2019-04-01T10:01:11.939Z,1025.7
2019-04-01T10:02:13.829Z,1025.4
2019-04-01T10:03:15.273Z,1025.0
2019-04-01T10:04:16.690Z,1022.0
2019-04-01T10:05:18.298Z,1019.3
2019-04-01T10:06:19.729Z,1020.4
2019-04-01T10:07:21.432Z,1021.5
2019-04-01T10:08:22.836Z,1022.8
2019-04-01T10:09:24.515Z,1025.7
2019-04-01T10:10:25.969Z,1026.5
2019-04-01T10:11:27.459Z,1026.1
2019-04-01T10:12:29.031Z,1025.7
2019-04-01T10:13:30.505Z,1024.0
2019-04-01T10:14:31.956Z,1021.5
2019-04-01T10:15:33.569Z,1023.2
2019-04-01T10:16:35.028Z,1022.8
2019-04-01T10:17:36.656Z,1022.2
2019-04-01T10:18:38.129Z,1023.6
2019-04-01T10:19:39.815Z,1025.5
2019-04-01T10:20:41.293Z,1023.1
2019-04-01T10:21:45.259Z,1021.6
2019-04-01T10:22:44.485Z,1022.2
2019-04-01T10:23:46.170Z,1025.2
2019-04-01T10:24:47.620Z,1025.5
2019-04-01T10:25:51.375Z,1021.9
2019-04-01T10:26:50.625Z,1019.4
2019-04-01T10:27:52.072Z,1021.6
2019-04-01T10:28:53.543Z,1025.7
2019-04-01T10:29:55.199Z,1024.2
2019-04-01T10:30:56.665Z,1024.2
2019-04-01T10:31:58.109Z,1025.7
2019-04-01T10:33:02.108Z,1025.4
2019-04-01T10:34:01.160Z,1025.3
2019-04-01T10:35:02.807Z,1025.4
2019-04-01T10:36:04.238Z,1025.2
2019-04-01T10:37:05.704Z,1025.2
2019-04-01T10:38:07.285Z,1025.2
2019-04-01T10:39:08.780Z,1024.8
2019-04-01T10:40:10.238Z,1023.8
2019-04-01T10:41:11.859Z,1023.4
2019-04-01T10:42:13.328Z,1022.8
2019-04-01T10:43:14.940Z,1022.2
2019-04-01T10:44:16.383Z,1023.9
2019-04-01T10:45:18.024Z,1023.3
2019-04-01T10:46:19.465Z,1022.9
2019-04-01T10:47:20.914Z,1020.4
2019-04-01T10:48:22.577Z,1022.0
2019-04-01T10:49:24.011Z,1021.2
2019-04-01T10:50:25.474Z,1022.2
2019-04-01T10:51:27.070Z,1021.7
2019-04-01T10:52:28.506Z,1020.4
2019-04-01T10:53:30.179Z,1019.1
2019-04-01T10:54:31.651Z,1018.7
2019-04-01T10:55:33.319Z,1019.5
2019-04-01T10:56:35.880Z,1020.3
2019-04-01T10:57:36.177Z,1020.1
2019-04-01T10:58:37.897Z,1019.7
2019-04-01T10:59:39.412Z,1019.3
2019-04-01T11:00:40.892Z,1018.9
2019-04-01T11:01:42.505Z,1018.7
2019-04-01T11:02:44.057Z,1018.5
2019-04-01T11:03:45.526Z,1018.3
2019-04-01T11:04:47.219Z,1018.3
2019-04-01T11:05:49.180Z,1018.2
2019-04-01T11:06:50.507Z,1018.2
2019-04-01T11:07:52.224Z,1018.1
2019-04-01T11:08:53.610Z,1018.0
2019-04-01T11:09:55.040Z,1018.0
2019-04-01T11:10:56.643Z,1018.1
2019-04-01T11:11:58.085Z,1017.7
2019-04-01T11:12:59.731Z,1017.6
2019-04-01T11:14:01.159Z,1017.5
2019-04-01T11:15:02.808Z,1017.3
2019-04-01T11:16:04.236Z,1017.2
2019-04-01T11:17:05.802Z,1017.1
2019-04-01T11:18:07.322Z,1017.1
2019-04-01T11:19:09.991Z,1017.1
2019-04-01T11:20:10.219Z,1017.1
2019-04-01T11:21:11.956Z,1017.2
2019-04-01T11:22:13.429Z,1017.1
2019-04-01T11:23:15.183Z,1017.1
2019-04-01T11:24:16.873Z,1016.9
2019-04-01T11:25:18.498Z,1016.9
2019-04-01T11:26:19.955Z,1016.9
2019-04-01T11:27:21.428Z,1017.1
2019-04-01T11:28:22.987Z,1017.0
2019-04-01T11:29:25.761Z,1016.9
2019-04-01T11:30:25.935Z,1016.9
2019-04-01T11:31:27.527Z,1016.8
2019-04-01T11:32:28.979Z,1016.8
2019-04-01T11:33:30.389Z,1016.7
2019-04-01T11:34:32.036Z,1016.7
2019-04-01T11:35:33.520Z,1016.7
2019-04-01T11:36:34.920Z,1016.7
2019-04-01T11:37:36.602Z,1016.6
2019-04-01T11:38:38.050Z,1016.6
2019-04-01T11:39:39.530Z,1016.6
2019-04-01T11:40:41.107Z,1016.7
2019-04-01T11:41:42.514Z,1016.6
2019-04-01T11:42:43.856Z,1016.5
2019-04-01T11:43:45.481Z,1016.6
2019-04-01T11:44:46.920Z,1016.6
2019-04-01T11:45:48.363Z,1016.5
2019-04-01T11:46:49.970Z,1016.5
2019-04-01T11:47:51.367Z,1016.4
2019-04-01T11:48:53.052Z,1016.4
2019-04-01T11:49:54.506Z,1016.4
2019-04-01T11:50:56.114Z,1016.4
2019-04-01T11:51:57.561Z,1016.5
2019-04-01T11:52:58.981Z,1016.4
2019-04-01T11:54:00.612Z,1016.4
2019-04-01T11:55:02.032Z,1016.4
2019-04-01T11:56:03.488Z,1016.4
2019-04-01T11:57:05.140Z,1016.4
2019-04-01T11:58:06.546Z,1016.4
2019-04-01T11:59:08.458Z,1016.4
2019-04-01T12:00:12.521Z,1016.3
2019-04-01T12:01:10.821Z,1016.3
2019-04-01T12:02:12.230Z,1016.2
2019-04-01T12:03:13.776Z,1016.3
2019-04-01T12:04:15.184Z,1016.2
2019-04-01T12:05:16.593Z,1016.2
2019-04-01T12:06:18.302Z,1016.2
2019-04-01T12:07:19.706Z,1016.1
2019-04-01T12:08:21.109Z,1016.2
2019-04-01T12:09:22.645Z,1016.1
2019-04-01T12:10:24.051Z,1016.1
2019-04-01T12:11:25.458Z,1016.1
2019-04-01T12:12:27.154Z,1016.1
2019-04-01T12:13:29.023Z,1016.0
2019-04-01T12:14:29.936Z,1016.0
2019-04-01T12:15:31.476Z,1015.9
2019-04-01T12:16:32.878Z,1015.9
2019-04-01T12:17:34.288Z,1015.9
2019-04-01T12:18:35.999Z,1015.9
2019-04-01T12:19:37.407Z,1016.0
2019-04-01T12:20:39.328Z,1015.8
2019-04-01T12:21:41.580Z,1015.9
2019-04-01T12:22:45.483Z,1015.9
2019-04-01T12:23:43.772Z,1015.9
2019-04-01T12:24:45.466Z,1015.9
2019-04-01T12:25:46.872Z,1015.9
2019-04-01T12:26:48.545Z,1015.8
2019-04-01T12:27:49.952Z,1015.9
2019-04-01T12:28:51.630Z,1015.9
2019-04-01T12:29:53.038Z,1015.8
2019-04-01T12:30:54.718Z,1015.8
2019-04-01T12:31:59.414Z,1015.8
2019-04-01T12:32:57.492Z,1015.7
2019-04-01T12:33:59.037Z,1015.7
2019-04-01T12:35:00.529Z,1015.7
2019-04-01T12:36:01.810Z,1015.7
2019-04-01T12:37:03.387Z,1015.7
2019-04-01T12:38:04.795Z,1015.7
2019-04-01T12:39:06.195Z,1015.6
2019-04-01T12:40:07.886Z,1015.6
2019-04-01T12:41:09.292Z,1015.6
2019-04-01T12:42:10.793Z,1015.6
2019-04-01T12:43:12.207Z,1015.5
2019-04-01T12:44:13.609Z,1015.5
2019-04-01T12:45:15.016Z,1015.5
2019-04-01T12:46:16.530Z,1015.4
2019-04-01T12:47:17.932Z,1015.4
2019-04-01T12:48:19.338Z,1015.3